Time,TemperatureF,DewpointF,PressureIn,WindDirection,WindDirectionDegrees,WindSpeedMPH,WindSpeedGustMPH,Humidity,HourlyPrecipIn,Conditions,Clouds,dailyrainin,SoftwareType,DateUTC
2013-11-24 00:14:00,5.2,2.7,30.77,West,270,0.0,-999.0,89,-99.99,,,0.00,Acu-Link.com,2013-11-24 06:14:00,
2013-11-24 00:29:00,4.3,1.5,30.78,WNW,292,0.0,-999.0,88,-99.99,,,0.00,Acu-Link.com,2013-11-24 06:29:00,
2013-11-24 00:44:00,3.6,0.9,30.77,West,270,0.0,-999.0,88,-99.99,,,0.00,Acu-Link.com,2013-11-24 06:44:00,
2013-11-24 00:59:00,3.9,1.6,30.77,WNW,292,0.0,-999.0,90,-99.99,,,0.00,Acu-Link.com,2013-11-24 06:59:00,
2013-11-24 01:14:00,4.5,2.0,30.76,SSW,202,0.0,-999.0,89,-99.99,,,0.00,Acu-Link.com,2013-11-24 07:14:00,
2013-11-24 01:29:00,3.7,1.2,30.76,West,270,0.0,-999.0,89,-99.99,,,0.00,Acu-Link.com,2013-11-24 07:29:00,
2013-11-24 01:45:00,3.6,1.3,30.76,WSW,247,0.0,-999.0,90,-99.99,,,0.00,Acu-Link.com,2013-11-24 07:45:00,
2013-11-24 02:00:00,4.6,2.3,30.77,South,180,0.0,-999.0,90,-99.99,,,0.00,Acu-Link.com,2013-11-24 08:00:00,
2013-11-24 02:15:00,3.7,1.4,30.76,SSW,202,0.0,-999.0,90,-99.99,,,0.00,Acu-Link.com,2013-11-24 08:15:00,
2013-11-24 02:30:00,3.6,1.6,30.76,SSW,202,0.0,-999.0,91,-99.99,,,0.00,Acu-Link.com,2013-11-24 08:30:00,
2013-11-24 02:45:00,4.3,2.0,30.76,ESE,112,0.0,-999.0,90,-99.99,,,0.00,Acu-Link.com,2013-11-24 08:45:00,
2013-11-24 03:00:00,3.9,1.9,30.76,South,180,0.0,-999.0,91,-99.99,,,0.00,Acu-Link.com,2013-11-24 09:00:00,
2013-11-24 03:15:00,3.4,1.4,30.76,SE,135,0.0,-999.0,91,-99.99,,,0.00,Acu-Link.com,2013-11-24 09:15:00,
2013-11-24 03:30:00,2.7,0.2,30.76,West,270,0.0,-999.0,89,-99.99,,,0.00,Acu-Link.com,2013-11-24 09:30:00,
2013-11-24 03:46:00,2.3,-0.4,30.76,West,270,0.0,-999.0,88,-99.99,,,0.00,Acu-Link.com,2013-11-24 09:46:00,
2013-11-24 04:01:00,2.5,0.0,30.75,ESE,112,0.0,-999.0,89,-99.99,,,0.00,Acu-Link.com,2013-11-24 10:01:00,
2013-11-24 04:16:00,3.7,2.1,30.75,SSE,157,0.0,-999.0,93,-99.99,,,0.00,Acu-Link.com,2013-11-24 10:16:00,
2013-11-24 04:31:00,3.2,1.2,30.75,South,180,0.0,-999.0,91,-99.99,,,0.00,Acu-Link.com,2013-11-24 10:31:00,
2013-11-24 04:46:00,2.8,0.3,30.76,SSE,157,0.0,-999.0,89,-99.99,,,0.00,Acu-Link.com,2013-11-24 10:46:00,
2013-11-24 05:02:00,3.6,1.8,30.75,South,180,0.0,-999.0,92,-99.99,,,0.00,Acu-Link.com,2013-11-24 11:02:00,
2013-11-24 05:17:00,3.4,1.1,30.75,SW,225,0.0,-999.0,90,-99.99,,,0.00,Acu-Link.com,2013-11-24 11:17:00,
2013-11-24 05:32:00,3.7,1.7,30.74,South,180,0.0,-999.0,91,-99.99,,,0.00,Acu-Link.com,2013-11-24 11:32:00,
2013-11-24 05:47:00,4.5,3.2,30.73,West,270,0.0,-999.0,94,-99.99,,,0.00,Acu-Link.com,2013-11-24 11:47:00,
2013-11-24 06:02:00,4.6,3.0,30.73,South,180,0.0,-999.0,93,-99.99,,,0.00,Acu-Link.com,2013-11-24 12:02:00,
2013-11-24 06:18:00,4.1,2.3,30.73,South,180,0.0,-999.0,92,-99.99,,,0.00,Acu-Link.com,2013-11-24 12:18:00,
2013-11-24 06:33:00,4.3,2.3,30.74,South,180,0.0,-999.0,91,-99.99,,,0.00,Acu-Link.com,2013-11-24 12:33:00,
2013-11-24 06:48:00,4.3,2.3,30.73,South,180,0.0,-999.0,91,-99.99,,,0.00,Acu-Link.com,2013-11-24 12:48:00,
2013-11-24 07:03:00,4.3,2.3,30.74,South,180,0.0,-999.0,91,-99.99,,,0.00,Acu-Link.com,2013-11-24 13:03:00,
2013-11-24 07:18:00,4.5,2.5,30.73,South,180,0.0,-999.0,91,-99.99,,,0.00,Acu-Link.com,2013-11-24 13:18:00,
2013-11-24 07:33:00,4.5,2.5,30.72,WSW,247,0.0,-999.0,91,-99.99,,,0.00,Acu-Link.com,2013-11-24 13:33:00,
2013-11-24 07:48:00,5.2,3.2,30.72,South,180,0.0,-999.0,91,-99.99,,,0.00,Acu-Link.com,2013-11-24 13:48:00,
2013-11-24 08:04:00,6.3,4.2,30.72,West,270,0.0,-999.0,91,-99.99,,,0.00,Acu-Link.com,2013-11-24 14:04:00,
2013-11-24 08:19:00,7.3,5.2,30.71,SSW,202,0.0,-999.0,91,-99.99,,,0.00,Acu-Link.com,2013-11-24 14:19:00,
2013-11-24 08:34:00,10.9,8.1,30.72,SSE,157,0.0,-999.0,88,-99.99,,,0.00,Acu-Link.com,2013-11-24 14:34:00,
2013-11-24 08:49:00,11.8,7.9,30.71,SW,225,2.2,-999.0,84,-99.99,,,0.00,Acu-Link.com,2013-11-24 14:49:00,
2013-11-24 09:04:00,13.6,8.6,30.70,ESE,112,3.2,-999.0,80,-99.99,,,0.00,Acu-Link.com,2013-11-24 15:04:00,
2013-11-24 09:20:00,14.4,8.8,30.70,South,180,1.1,-999.0,78,-99.99,,,0.00,Acu-Link.com,2013-11-24 15:20:00,
2013-11-24 09:35:00,14.9,8.4,30.69,NNE,22,3.2,-999.0,75,-99.99,,,0.00,Acu-Link.com,2013-11-24 15:35:00,
2013-11-24 09:50:00,16.3,9.2,30.69,NE,45,0.0,-999.0,73,-99.99,,,0.00,Acu-Link.com,2013-11-24 15:50:00,
2013-11-24 10:05:00,16.5,9.7,30.69,ENE,67,2.2,-999.0,74,-99.99,,,0.00,Acu-Link.com,2013-11-24 16:05:00,
2013-11-24 10:20:00,18.0,10.2,30.68,SSE,157,3.7,-999.0,71,-99.99,,,0.00,Acu-Link.com,2013-11-24 16:20:00,
2013-11-24 10:35:00,18.7,11.5,30.67,ESE,112,1.7,-999.0,73,-99.99,,,0.00,Acu-Link.com,2013-11-24 16:35:00,
2013-11-24 10:51:00,20.3,11.1,30.66,WNW,292,3.2,-999.0,67,-99.99,,,0.00,Acu-Link.com,2013-11-24 16:51:00,
2013-11-24 11:06:00,20.7,11.2,30.64,NNE,22,2.7,-999.0,66,-99.99,,,0.00,Acu-Link.com,2013-11-24 17:06:00,
2013-11-24 11:21:00,21.6,12.0,30.63,NNW,337,1.1,-999.0,66,-99.99,,,0.00,Acu-Link.com,2013-11-24 17:21:00,
2013-11-24 11:36:00,23.7,12.6,30.62,West,270,1.7,-999.0,62,-99.99,,,0.00,Acu-Link.com,2013-11-24 17:36:00,
2013-11-24 11:51:00,23.5,10.1,30.61,South,180,3.2,-999.0,56,-99.99,,,0.00,Acu-Link.com,2013-11-24 17:51:00,
2013-11-24 12:06:00,23.7,10.3,30.60,ENE,67,3.7,-999.0,56,-99.99,,,0.00,Acu-Link.com,2013-11-24 18:06:00,
2013-11-24 12:21:00,24.3,10.5,30.59,SSE,157,2.2,-999.0,55,-99.99,,,0.00,Acu-Link.com,2013-11-24 18:21:00,
2013-11-24 12:36:00,24.6,10.8,30.57,West,270,2.7,-999.0,55,-99.99,,,0.00,Acu-Link.com,2013-11-24 18:36:00,
2013-11-24 12:52:00,25.0,10.3,30.57,SE,135,2.2,-999.0,53,-99.99,,,0.00,Acu-Link.com,2013-11-24 18:52:00,
2013-11-24 13:07:00,25.3,9.7,30.55,NNE,22,0.0,-999.0,51,-99.99,,,0.00,Acu-Link.com,2013-11-24 19:07:00,
2013-11-24 13:22:00,25.3,10.6,30.54,SSE,157,3.7,-999.0,53,-99.99,,,0.00,Acu-Link.com,2013-11-24 19:22:00,
2013-11-24 13:37:00,25.9,11.2,30.52,East,90,4.7,-999.0,53,-99.99,,,0.00,Acu-Link.com,2013-11-24 19:37:00,
2013-11-24 13:52:00,26.4,12.0,30.51,East,90,2.2,-999.0,54,-99.99,,,0.00,Acu-Link.com,2013-11-24 19:52:00,
2013-11-24 14:07:00,26.6,11.4,30.50,SSW,202,2.7,-999.0,52,-99.99,,,0.00,Acu-Link.com,2013-11-24 20:07:00,
2013-11-24 14:22:00,27.1,11.8,30.49,WSW,247,2.2,-999.0,52,-99.99,,,0.00,Acu-Link.com,2013-11-24 20:22:00,
2013-11-24 14:37:00,27.1,12.3,30.48,South,180,3.2,-999.0,53,-99.99,,,0.00,Acu-Link.com,2013-11-24 20:37:00,
2013-11-24 14:52:00,27.1,12.7,30.47,South,180,3.2,-999.0,54,-99.99,,,0.00,Acu-Link.com,2013-11-24 20:52:00,
2013-11-24 15:08:00,27.3,13.3,30.46,ENE,67,2.2,-999.0,55,-99.99,,,0.00,Acu-Link.com,2013-11-24 21:08:00,
2013-11-24 15:23:00,27.1,12.3,30.45,SSE,157,1.7,-999.0,53,-99.99,,,0.00,Acu-Link.com,2013-11-24 21:23:00,
2013-11-24 15:38:00,27.1,12.3,30.45,ESE,112,2.7,-999.0,53,-99.99,,,0.00,Acu-Link.com,2013-11-24 21:38:00,
2013-11-24 15:53:00,26.8,11.1,30.44,West,270,1.7,-999.0,51,-99.99,,,0.00,Acu-Link.com,2013-11-24 21:53:00,
2013-11-24 16:08:00,26.6,12.2,30.44,West,270,1.7,-999.0,54,-99.99,,,0.00,Acu-Link.com,2013-11-24 22:08:00,
2013-11-24 16:24:00,25.9,12.4,30.43,SE,135,1.1,-999.0,56,-99.99,,,0.00,Acu-Link.com,2013-11-24 22:24:00,
2013-11-24 16:39:00,25.5,12.4,30.42,South,180,0.0,-999.0,57,-99.99,,,0.00,Acu-Link.com,2013-11-24 22:39:00,
2013-11-24 16:54:00,24.6,12.0,30.41,NNE,22,0.0,-999.0,58,-99.99,,,0.00,Acu-Link.com,2013-11-24 22:54:00,
2013-11-24 17:09:00,23.7,11.9,30.41,WNW,292,0.0,-999.0,60,-99.99,,,0.00,Acu-Link.com,2013-11-24 23:09:00,
2013-11-24 17:24:00,23.0,11.9,30.41,SSE,157,0.0,-999.0,62,-99.99,,,0.00,Acu-Link.com,2013-11-24 23:24:00,
2013-11-24 17:39:00,22.8,12.1,30.40,SSE,157,1.1,-999.0,63,-99.99,,,0.00,Acu-Link.com,2013-11-24 23:39:00,
2013-11-24 17:55:00,22.6,11.6,30.40,ENE,67,0.0,-999.0,62,-99.99,,,0.00,Acu-Link.com,2013-11-24 23:55:00,
2013-11-24 18:10:00,22.5,11.8,30.40,West,270,1.7,-999.0,63,-99.99,,,0.00,Acu-Link.com,2013-11-25 00:10:00,
2013-11-24 18:25:00,22.1,11.8,30.40,NE,45,1.1,-999.0,64,-99.99,,,0.00,Acu-Link.com,2013-11-25 00:25:00,
2013-11-24 18:40:00,21.7,11.8,30.39,SE,135,0.0,-999.0,65,-99.99,,,0.00,Acu-Link.com,2013-11-25 00:40:00,
2013-11-24 18:55:00,21.7,11.4,30.39,WSW,247,1.1,-999.0,64,-99.99,,,0.00,Acu-Link.com,2013-11-25 00:55:00,
2013-11-24 19:11:00,21.2,11.3,30.38,West,270,1.7,-999.0,65,-99.99,,,0.00,Acu-Link.com,2013-11-25 01:11:00,
2013-11-24 19:26:00,21.0,11.1,30.37,WSW,247,1.1,-999.0,65,-99.99,,,0.00,Acu-Link.com,2013-11-25 01:26:00,
2013-11-24 19:41:00,20.8,10.9,30.37,East,90,1.7,-999.0,65,-99.99,,,0.00,Acu-Link.com,2013-11-25 01:41:00,
2013-11-24 19:56:00,20.5,11.0,30.36,SSE,157,1.7,-999.0,66,-99.99,,,0.00,Acu-Link.com,2013-11-25 01:56:00,
2013-11-24 20:11:00,20.7,11.2,30.35,WSW,247,1.7,-999.0,66,-99.99,,,0.00,Acu-Link.com,2013-11-25 02:11:00,
2013-11-24 20:27:00,20.5,11.0,30.35,NE,45,2.2,-999.0,66,-99.99,,,0.00,Acu-Link.com,2013-11-25 02:27:00,
2013-11-24 20:42:00,20.5,11.3,30.34,SW,225,2.7,-999.0,67,-99.99,,,0.00,Acu-Link.com,2013-11-25 02:42:00,
2013-11-24 20:57:00,20.5,11.6,30.33,South,180,1.7,-999.0,68,-99.99,,,0.00,Acu-Link.com,2013-11-25 02:57:00,
2013-11-24 21:12:00,20.7,11.8,30.32,ESE,112,1.7,-999.0,68,-99.99,,,0.00,Acu-Link.com,2013-11-25 03:12:00,
2013-11-24 21:27:00,21.0,12.1,30.31,WSW,247,2.7,-999.0,68,-99.99,,,0.00,Acu-Link.com,2013-11-25 03:27:00,
2013-11-24 21:43:00,21.4,12.5,30.31,ESE,112,2.2,-999.0,68,-99.99,,,0.00,Acu-Link.com,2013-11-25 03:43:00,
2013-11-24 21:58:00,21.6,12.7,30.31,NNE,22,1.7,-999.0,68,-99.99,,,0.00,Acu-Link.com,2013-11-25 03:58:00,
2013-11-24 22:13:00,21.9,13.0,30.30,ENE,67,1.7,-999.0,68,-99.99,,,0.00,Acu-Link.com,2013-11-25 04:13:00,
2013-11-24 22:28:00,21.9,13.0,30.30,SSW,202,2.2,-999.0,68,-99.99,,,0.00,Acu-Link.com,2013-11-25 04:28:00,
2013-11-24 22:44:00,22.5,13.6,30.30,SSE,157,1.7,-999.0,68,-99.99,,,0.00,Acu-Link.com,2013-11-25 04:44:00,
2013-11-24 22:59:00,22.6,13.7,30.29,NE,45,1.7,-999.0,68,-99.99,,,0.00,Acu-Link.com,2013-11-25 04:59:00,
2013-11-24 23:14:00,23.4,14.4,30.28,South,180,2.2,-999.0,68,-99.99,,,0.00,Acu-Link.com,2013-11-25 05:14:00,
2013-11-24 23:29:00,23.5,14.2,30.28,ESE,112,1.7,-999.0,67,-99.99,,,0.00,Acu-Link.com,2013-11-25 05:29:00,
2013-11-24 23:44:00,23.9,14.6,30.26,WSW,247,4.2,-999.0,67,-99.99,,,0.00,Acu-Link.com,2013-11-25 05:44:00,